メインページ
METAR-TAF:

METAR-TAF

空港 :

Bella Coola, ブリティッシュコロンビア州, カナダ

緯度: 52-23N, 経度: 126-35W, 海抜: 35m

現時点の気象観測

当レポートは1時間15分前の17:00(UTC)に作成
西の風 15kt、最大21ktの突風を伴う
気温 12°C
湿度 82%
気圧 1007 hPa
視程: 19.3km
高度3000ftの雲はほとんどない
高度6000ftの千切れ雲あり
小雨

METAR: CYBD 171700Z 28015G21KT 12SM -RA FEW030 BKN060 12/09 A2974 RMK SC1SC6 SLP072

時間: 10:15 (18:15 UTC)


TAF: 見つかりません

4,000以上の空港の気象観測と天気予報(METAR報とTAF報)

利用可能な観測所は地図上に黄色い丸と赤い丸で示す。

丸の上にカーソルを重ねると観測所名を参照できる。

次にクリックすると気象観測と天気予報を参照できる。

マップの切り替え:黒色「×」印の緑ボタンをクリックして拡大、「-」印の緑ボタンをクリックして縮小、緑色の三角印をクリックして隣りの地図に切り替え


METAR-TAF: